createdAt,value
2022-10-04T00:02:00.520Z,12.72
2022-10-04T00:04:59.022Z,12.73
2022-10-04T00:07:39.750Z,12.77
2022-10-04T00:10:20.774Z,12.76
2022-10-04T00:12:58.653Z,12.78
2022-10-04T00:15:37.338Z,12.79
2022-10-04T00:18:11.803Z,12.80
2022-10-04T00:20:53.456Z,12.84
2022-10-04T00:23:25.102Z,12.79
2022-10-04T00:25:58.720Z,12.79
2022-10-04T00:28:36.168Z,12.81
2022-10-04T00:31:18.498Z,12.86
2022-10-04T00:33:54.068Z,12.89
2022-10-04T00:36:25.669Z,12.91
2022-10-04T00:39:07.677Z,12.90
2022-10-04T00:41:48.437Z,12.90
2022-10-04T00:44:44.924Z,12.90
2022-10-04T00:47:35.470Z,12.89
2022-10-04T00:50:14.844Z,12.90
2022-10-04T00:52:53.112Z,12.89
2022-10-04T00:55:39.828Z,12.91
2022-10-04T00:58:45.183Z,12.98
2022-10-04T01:01:23.836Z,12.97
2022-10-04T01:04:00.565Z,12.97
2022-10-04T01:06:34.271Z,12.95
2022-10-04T01:09:09.737Z,12.95
2022-10-04T01:11:47.375Z,12.95
2022-10-04T01:14:34.224Z,12.94
2022-10-04T01:17:05.896Z,12.93
2022-10-04T01:19:38.823Z,12.94
2022-10-04T01:22:14.465Z,12.97
2022-10-04T01:24:46.160Z,12.99
2022-10-04T01:27:34.332Z,13.02
2022-10-04T01:30:09.649Z,13.01
2022-10-04T01:32:45.396Z,13.00
2022-10-04T01:35:20.434Z,13.01
2022-10-04T01:37:52.084Z,13.01
2022-10-04T01:40:23.806Z,12.97
2022-10-04T01:43:02.122Z,12.95
2022-10-04T01:45:37.674Z,12.99
2022-10-04T01:48:16.185Z,12.95
2022-10-04T01:50:57.582Z,12.99
2022-10-04T01:53:32.477Z,13.02
2022-10-04T01:56:10.252Z,13.03
2022-10-04T01:58:47.022Z,13.04
2022-10-04T02:01:31.642Z,13.07
2022-10-04T02:04:11.887Z,13.08
2022-10-04T02:06:45.798Z,13.05
2022-10-04T02:09:25.700Z,13.08
2022-10-04T02:11:59.156Z,13.13
2022-10-04T02:14:33.601Z,13.16
2022-10-04T02:17:10.859Z,13.13
2022-10-04T02:19:43.250Z,13.08
2022-10-04T02:22:15.678Z,13.06
2022-10-04T02:24:49.764Z,13.03
2022-10-04T02:27:30.174Z,13.02
2022-10-04T02:30:07.308Z,13.03
2022-10-04T02:33:02.486Z,13.06
2022-10-04T02:35:46.449Z,13.07
2022-10-04T02:38:32.842Z,13.07
2022-10-04T02:41:17.473Z,13.08
2022-10-04T02:44:13.563Z,13.05
2022-10-04T02:46:57.331Z,13.06
2022-10-04T02:49:53.664Z,12.99
2022-10-04T02:52:35.333Z,12.98
2022-10-04T02:55:13.681Z,12.95
2022-10-04T02:57:45.934Z,12.96
2022-10-04T03:00:24.654Z,12.99
2022-10-04T03:03:16.707Z,13.00
2022-10-04T03:06:03.171Z,13.03
2022-10-04T03:08:47.119Z,13.02
2022-10-04T03:11:22.628Z,13.02
2022-10-04T03:13:57.533Z,13.03
2022-10-04T03:16:36.259Z,13.04
2022-10-04T03:19:08.975Z,12.99
2022-10-04T03:21:43.663Z,12.98
2022-10-04T03:24:20.567Z,13.00
2022-10-04T03:26:55.676Z,13.04
2022-10-04T03:29:30.385Z,13.06
2022-10-04T03:32:03.864Z,13.09
2022-10-04T03:34:38.056Z,13.11
2022-10-04T03:37:16.551Z,13.10
2022-10-04T03:39:50.510Z,13.06
2022-10-04T03:42:30.474Z,13.03
2022-10-04T03:45:07.280Z,13.00
2022-10-04T03:47:43.335Z,12.99
2022-10-04T03:50:33.607Z,12.99
2022-10-04T03:53:14.660Z,12.99
2022-10-04T03:55:46.512Z,12.93
2022-10-04T03:58:19.211Z,12.94
2022-10-04T04:01:28.057Z,12.94
2022-10-04T04:04:18.472Z,12.90
2022-10-04T04:06:50.470Z,12.89
2022-10-04T04:09:29.945Z,12.92
2022-10-04T04:12:06.427Z,12.93
2022-10-04T04:14:41.346Z,12.90
2022-10-04T04:17:38.187Z,12.86
2022-10-04T04:20:20.722Z,12.85
2022-10-04T04:23:15.314Z,12.80
2022-10-04T04:25:55.668Z,12.78
2022-10-04T04:28:36.668Z,12.75
2022-10-04T04:31:29.901Z,12.72
2022-10-04T04:34:04.527Z,12.76
2022-10-04T04:36:41.662Z,12.79
2022-10-04T04:39:34.327Z,12.81
2022-10-04T04:42:19.262Z,12.84
2022-10-04T04:44:53.529Z,12.80
2022-10-04T04:47:27.783Z,12.82
2022-10-04T04:50:08.331Z,12.83
2022-10-04T04:52:40.803Z,12.83
2022-10-04T04:56:02.335Z,12.77
2022-10-04T04:58:42.441Z,12.76
2022-10-04T05:01:27.385Z,12.73
2022-10-04T05:04:03.306Z,12.72
2022-10-04T05:06:36.871Z,12.70
2022-10-04T05:09:33.579Z,12.69
2022-10-04T05:12:12.785Z,12.63
2022-10-04T05:14:49.277Z,12.59
2022-10-04T05:17:25.085Z,12.57
2022-10-04T05:19:59.268Z,12.58
2022-10-04T05:22:32.308Z,12.60
2022-10-04T05:25:13.534Z,12.66
2022-10-04T05:27:45.643Z,12.70
2022-10-04T05:30:47.603Z,12.69
2022-10-04T05:33:45.879Z,12.68
2022-10-04T05:36:29.747Z,12.71
2022-10-04T05:39:09.646Z,12.76
2022-10-04T05:41:56.321Z,12.77
2022-10-04T05:44:35.166Z,12.81
2022-10-04T05:47:08.231Z,12.83
2022-10-04T05:49:46.482Z,12.82
2022-10-04T05:52:38.658Z,12.84
2022-10-04T05:55:13.194Z,12.87
2022-10-04T05:57:59.780Z,12.90
2022-10-04T06:01:01.908Z,12.87
2022-10-04T06:03:50.503Z,12.90
2022-10-04T06:06:38.477Z,12.95
2022-10-04T06:09:27.998Z,13.04
2022-10-04T06:12:11.654Z,13.10
2022-10-04T06:15:08.359Z,13.15
2022-10-04T06:18:10.670Z,13.16
2022-10-04T06:20:42.247Z,13.17
2022-10-04T06:23:17.163Z,13.21
2022-10-04T06:26:09.365Z,13.19
2022-10-04T06:28:46.961Z,13.18
2022-10-04T06:31:57.243Z,13.19
2022-10-04T06:34:51.965Z,13.27
2022-10-04T06:37:41.959Z,13.29
2022-10-04T06:40:34.346Z,13.36
2022-10-04T06:43:23.966Z,13.46
2022-10-04T06:46:15.731Z,13.47
2022-10-04T06:48:56.789Z,13.52
2022-10-04T06:51:42.914Z,13.62
2022-10-04T06:54:31.948Z,13.67
2022-10-04T06:57:18.971Z,13.70
2022-10-04T07:00:23.647Z,13.82
2022-10-04T07:03:09.434Z,13.92
2022-10-04T07:06:04.942Z,14.09
2022-10-04T07:08:48.811Z,14.20
2022-10-04T07:11:45.565Z,14.34
2022-10-04T07:14:43.683Z,14.58
2022-10-04T07:17:24.429Z,14.87
2022-10-04T07:20:00.869Z,15.29
2022-10-04T07:22:58.303Z,15.86
2022-10-04T07:25:48.066Z,16.54
2022-10-04T07:28:58.060Z,17.18
2022-10-04T07:31:38.238Z,18.19
2022-10-04T07:34:15.730Z,19.06
2022-10-04T07:36:53.909Z,19.68
2022-10-04T07:39:31.772Z,19.94
2022-10-04T07:42:26.373Z,19.61
2022-10-04T07:45:05.956Z,19.17
2022-10-04T07:47:37.966Z,19.03
2022-10-04T07:50:28.575Z,19.07
2022-10-04T07:53:15.355Z,18.85
2022-10-04T07:56:07.644Z,18.43
2022-10-04T07:59:22.566Z,18.35
2022-10-04T08:02:07.199Z,18.11
2022-10-04T08:04:56.321Z,18.34
2022-10-04T08:07:51.107Z,18.48
2022-10-04T08:10:44.064Z,18.69
2022-10-04T08:13:41.501Z,18.98
2022-10-04T08:16:33.292Z,19.87
2022-10-04T08:19:25.850Z,20.60
2022-10-04T08:22:33.347Z,21.30
2022-10-04T08:25:33.341Z,21.60
2022-10-04T08:28:26.702Z,21.04
2022-10-04T08:31:30.651Z,20.31
2022-10-04T08:34:26.969Z,19.61
2022-10-04T08:37:24.192Z,19.12
2022-10-04T08:40:12.754Z,18.73
2022-10-04T08:43:02.916Z,18.63
2022-10-04T08:45:56.364Z,18.57
2022-10-04T08:48:58.877Z,18.50
2022-10-04T08:52:04.599Z,18.22
2022-10-04T08:54:40.379Z,17.94
2022-10-04T08:57:16.487Z,17.92
2022-10-04T09:00:08.625Z,18.02
2022-10-04T09:03:14.031Z,18.06
2022-10-04T09:06:13.282Z,18.19
2022-10-04T09:09:21.836Z,17.92
2022-10-04T09:12:14.293Z,17.77
2022-10-04T09:14:50.111Z,17.53
2022-10-04T09:17:59.345Z,17.44
2022-10-04T09:21:06.167Z,17.37
2022-10-04T09:24:05.197Z,17.40
2022-10-04T09:26:52.336Z,17.28
2022-10-04T09:29:38.973Z,17.17
2022-10-04T09:32:35.572Z,17.22
2022-10-04T09:35:13.127Z,17.33
2022-10-04T09:38:13.587Z,17.37
2022-10-04T09:41:13.051Z,17.85
2022-10-04T09:44:22.741Z,18.32
2022-10-04T09:47:31.136Z,18.41
2022-10-04T09:50:15.126Z,18.32
2022-10-04T09:53:08.200Z,18.25
2022-10-04T09:55:45.672Z,18.23
2022-10-04T09:58:36.205Z,17.90
2022-10-04T10:01:14.332Z,17.86
2022-10-04T10:03:48.918Z,17.95
2022-10-04T10:06:32.295Z,18.48
2022-10-04T10:09:50.042Z,19.25
2022-10-04T10:13:06.135Z,19.48
2022-10-04T10:15:58.199Z,19.26
2022-10-04T10:19:01.061Z,19.19
2022-10-04T10:21:58.515Z,19.05
2022-10-04T10:25:05.178Z,19.00
2022-10-04T10:28:07.036Z,18.75
2022-10-04T10:31:06.187Z,18.55
2022-10-04T10:33:56.283Z,18.35
2022-10-04T10:36:52.277Z,18.26
2022-10-04T10:39:48.393Z,18.20
2022-10-04T10:42:43.639Z,18.28
2022-10-04T10:45:29.672Z,18.37
2022-10-04T10:48:19.293Z,19.02
2022-10-04T10:51:17.420Z,19.77
2022-10-04T10:54:36.460Z,20.21
2022-10-04T10:57:45.702Z,20.49
2022-10-04T11:00:47.153Z,20.84
2022-10-04T11:04:14.276Z,21.14
2022-10-04T11:07:02.990Z,21.19
2022-10-04T11:09:59.596Z,20.89
2022-10-04T11:12:31.213Z,20.98
2022-10-04T11:15:31.774Z,21.53
2022-10-04T11:18:27.566Z,22.02
2022-10-04T11:21:27.940Z,22.00
2022-10-04T11:24:44.620Z,22.16
2022-10-04T11:27:47.834Z,22.34
2022-10-04T11:30:26.259Z,22.02
2022-10-04T11:33:42.359Z,21.71
2022-10-04T11:36:48.426Z,21.12
2022-10-04T11:39:43.767Z,20.47
2022-10-04T11:42:26.221Z,20.30
2022-10-04T11:45:19.312Z,20.01
2022-10-04T11:48:09.420Z,19.70
2022-10-04T11:51:20.865Z,19.53
2022-10-04T11:54:14.204Z,19.56
2022-10-04T11:57:04.207Z,19.68
2022-10-04T11:59:48.226Z,19.95
2022-10-04T12:02:32.281Z,20.14
2022-10-04T12:05:17.322Z,20.38
2022-10-04T12:08:14.723Z,20.96
2022-10-04T12:11:01.462Z,21.33
2022-10-04T12:13:32.992Z,21.47
2022-10-04T12:16:41.563Z,21.34
2022-10-04T12:19:29.006Z,21.55
2022-10-04T12:22:28.195Z,21.67
2022-10-04T12:25:25.109Z,21.70
2022-10-04T12:28:28.015Z,21.50
2022-10-04T12:31:24.114Z,21.78
2022-10-04T12:34:14.951Z,21.85
2022-10-04T12:37:07.066Z,21.67
2022-10-04T12:39:48.127Z,21.55
2022-10-04T12:42:32.353Z,21.22
2022-10-04T12:45:13.522Z,21.24
2022-10-04T12:47:56.627Z,21.29
2022-10-04T12:50:52.214Z,21.25
2022-10-04T12:53:34.638Z,21.14
2022-10-04T12:56:08.606Z,21.13
2022-10-04T12:59:12.516Z,21.05
2022-10-04T13:02:11.440Z,20.98
2022-10-04T13:04:52.673Z,21.01
2022-10-04T13:07:36.818Z,20.83
2022-10-04T13:10:25.039Z,20.74
2022-10-04T13:13:23.475Z,20.86
2022-10-04T13:19:34.628Z,21.27
2022-10-04T13:23:00.239Z,21.37
2022-10-04T13:25:45.780Z,21.59
2022-10-04T13:28:27.703Z,21.78
2022-10-04T13:31:08.728Z,21.98
2022-10-04T13:33:50.910Z,21.91
2022-10-04T13:37:11.817Z,21.66
2022-10-04T13:39:49.830Z,21.57
2022-10-04T13:42:45.955Z,21.69
2022-10-04T13:46:02.732Z,21.51
2022-10-04T13:48:53.425Z,21.47
2022-10-04T13:51:43.017Z,21.59
2022-10-04T13:54:38.076Z,21.58
2022-10-04T13:57:37.181Z,21.59
2022-10-04T14:00:19.559Z,21.65
2022-10-04T14:02:53.885Z,21.55
2022-10-04T14:05:40.405Z,21.38
2022-10-04T14:08:33.655Z,21.38
2022-10-04T14:11:23.851Z,21.33
2022-10-04T14:14:14.632Z,21.43
2022-10-04T14:17:41.856Z,21.56
2022-10-04T14:20:28.600Z,21.39
2022-10-04T14:23:32.517Z,21.26
2022-10-04T14:26:13.019Z,21.16
2022-10-04T14:29:00.460Z,20.90
2022-10-04T14:32:09.207Z,20.86
2022-10-04T14:34:57.026Z,20.94
2022-10-04T14:38:12.941Z,20.93
2022-10-04T14:41:08.577Z,20.96
2022-10-04T14:43:58.733Z,21.03
2022-10-04T14:46:54.989Z,20.79
2022-10-04T14:49:44.878Z,20.61
2022-10-04T14:52:49.488Z,20.65
2022-10-04T14:55:51.491Z,20.69
2022-10-04T14:58:32.272Z,20.72
2022-10-04T15:01:23.356Z,20.73
2022-10-04T15:04:14.132Z,20.62
2022-10-04T15:07:18.664Z,20.41
2022-10-04T15:09:57.870Z,20.37
2022-10-04T15:12:51.856Z,20.30
2022-10-04T15:15:54.982Z,20.04
2022-10-04T15:18:38.594Z,19.95
2022-10-04T15:21:34.954Z,19.93
2022-10-04T15:24:18.447Z,19.80
2022-10-04T15:27:21.994Z,19.69
2022-10-04T15:30:30.830Z,19.61
2022-10-04T15:33:23.610Z,19.55
2022-10-04T15:36:27.512Z,19.43
2022-10-04T15:39:07.585Z,19.34
2022-10-04T15:41:57.536Z,19.17
2022-10-04T15:44:48.664Z,19.05
2022-10-04T15:47:27.709Z,18.97
2022-10-04T15:50:37.888Z,18.89
2022-10-04T15:53:20.114Z,18.83
2022-10-04T15:56:04.636Z,18.76
2022-10-04T15:58:56.240Z,18.65
2022-10-04T16:02:03.197Z,18.57
2022-10-04T16:05:05.614Z,18.47
2022-10-04T16:07:55.779Z,18.37
2022-10-04T16:11:11.623Z,18.27
2022-10-04T16:13:55.094Z,18.18
2022-10-04T16:16:30.120Z,18.10
2022-10-04T16:19:16.763Z,18.03
2022-10-04T16:21:48.402Z,17.97
2022-10-04T16:24:22.065Z,17.85
2022-10-04T16:26:56.309Z,17.79
2022-10-04T16:29:35.775Z,17.71
2022-10-04T16:32:12.955Z,17.65
2022-10-04T16:35:16.353Z,17.56
2022-10-04T16:38:16.942Z,17.44
2022-10-04T16:41:00.447Z,17.34
2022-10-04T16:43:34.235Z,17.27
2022-10-04T16:46:23.164Z,17.16
2022-10-04T16:49:03.833Z,17.05
2022-10-04T16:51:48.486Z,16.96
2022-10-04T16:54:26.515Z,16.88
2022-10-04T16:56:58.108Z,16.77
2022-10-04T16:59:38.843Z,16.69
2022-10-04T17:02:31.170Z,16.58
2022-10-04T17:05:22.727Z,16.50
2022-10-04T17:08:17.272Z,16.41
2022-10-04T17:10:48.911Z,16.34
2022-10-04T17:13:38.751Z,16.24
2022-10-04T17:16:18.097Z,16.14
2022-10-04T17:18:49.813Z,16.07
2022-10-04T17:21:46.130Z,16.00
2022-10-04T17:24:47.146Z,15.91
2022-10-04T17:27:48.298Z,15.80
2022-10-04T17:30:26.569Z,15.73
2022-10-04T17:33:38.942Z,15.67
2022-10-04T17:36:48.145Z,15.64
2022-10-04T17:39:35.960Z,15.59
2022-10-04T17:42:31.585Z,15.52
2022-10-04T17:45:30.902Z,15.48
2022-10-04T17:48:26.503Z,15.40
2022-10-04T17:51:44.895Z,15.36
2022-10-04T17:54:52.761Z,15.33
2022-10-04T17:57:39.538Z,15.25
2022-10-04T18:00:18.444Z,15.17
2022-10-04T18:03:04.353Z,15.09
2022-10-04T18:06:16.581Z,15.03
2022-10-04T18:09:00.297Z,14.98
2022-10-04T18:11:50.259Z,14.97
2022-10-04T18:14:52.261Z,14.95
2022-10-04T18:17:57.744Z,14.90
2022-10-04T18:21:02.304Z,14.82
2022-10-04T18:23:56.234Z,14.74
2022-10-04T18:26:34.604Z,14.68
2022-10-04T18:29:15.696Z,14.64
2022-10-04T18:31:59.942Z,14.59
2022-10-04T18:34:32.253Z,14.51
2022-10-04T18:37:21.521Z,14.48
2022-10-04T18:40:15.222Z,14.44
2022-10-04T18:43:03.226Z,14.41
2022-10-04T18:45:35.232Z,14.33
2022-10-04T18:48:18.336Z,14.25
2022-10-04T18:50:50.885Z,14.15
2022-10-04T18:53:36.546Z,14.07
2022-10-04T18:56:10.189Z,14.01
2022-10-04T18:59:32.189Z,13.95
2022-10-04T19:02:38.203Z,13.85
2022-10-04T19:05:25.689Z,13.75
2022-10-04T19:08:22.697Z,13.68
2022-10-04T19:11:02.872Z,13.62
2022-10-04T19:13:49.669Z,13.59
2022-10-04T19:16:46.293Z,13.52
2022-10-04T19:19:27.044Z,13.47
2022-10-04T19:22:11.760Z,13.42
2022-10-04T19:25:12.073Z,13.37
2022-10-04T19:27:52.093Z,13.31
2022-10-04T19:30:44.031Z,13.25
2022-10-04T19:33:37.377Z,13.22
2022-10-04T19:36:31.447Z,13.16
2022-10-04T19:39:30.322Z,13.13
2022-10-04T19:42:12.575Z,13.07
2022-10-04T19:45:25.150Z,13.02
2022-10-04T19:48:07.136Z,12.94
2022-10-04T19:50:47.902Z,12.92
2022-10-04T19:53:41.160Z,12.86
2022-10-04T19:56:28.995Z,12.78
2022-10-04T19:59:19.981Z,12.76
2022-10-04T20:01:53.154Z,12.76
2022-10-04T20:04:35.474Z,12.77
2022-10-04T20:07:28.361Z,12.73
2022-10-04T20:10:23.089Z,12.68
2022-10-04T20:13:21.322Z,12.64
2022-10-04T20:16:00.600Z,12.62
2022-10-04T20:18:32.307Z,12.64
2022-10-04T20:21:08.683Z,12.61
2022-10-04T20:23:40.682Z,12.62
2022-10-04T20:26:58.725Z,12.60
2022-10-04T20:29:36.413Z,12.55
2022-10-04T20:32:34.543Z,12.52
2022-10-04T20:35:35.477Z,12.45
2022-10-04T20:38:31.766Z,12.42
2022-10-04T20:41:04.652Z,12.36
2022-10-04T20:44:02.841Z,12.31
2022-10-04T20:46:38.557Z,12.28
2022-10-04T20:49:17.049Z,12.25
2022-10-04T20:51:52.104Z,12.20
2022-10-04T20:54:24.020Z,12.16
2022-10-04T20:56:57.180Z,12.15
2022-10-04T20:59:28.864Z,12.12
2022-10-04T21:02:05.117Z,12.09
2022-10-04T21:04:47.419Z,12.06
2022-10-04T21:07:31.136Z,12.02
2022-10-04T21:10:34.001Z,11.99
2022-10-04T21:13:05.751Z,11.95
2022-10-04T21:15:55.549Z,11.92
2022-10-04T21:18:27.167Z,11.89
2022-10-04T21:20:58.755Z,11.85
2022-10-04T21:23:33.781Z,11.82
2022-10-04T21:26:25.249Z,11.80
2022-10-04T21:28:58.220Z,11.76
2022-10-04T21:31:30.202Z,11.71
2022-10-04T21:34:04.825Z,11.71
2022-10-04T21:36:37.882Z,11.68
2022-10-04T21:39:09.574Z,11.66
2022-10-04T21:41:41.332Z,11.66
2022-10-04T21:44:13.083Z,11.65
2022-10-04T21:46:45.554Z,11.63
2022-10-04T21:49:19.868Z,11.62
2022-10-04T21:51:51.609Z,11.60
2022-10-04T21:54:23.842Z,11.59
2022-10-04T21:56:55.593Z,11.58
2022-10-04T21:59:27.830Z,11.52
2022-10-04T22:01:59.741Z,11.50
2022-10-04T22:04:31.772Z,11.48
2022-10-04T22:07:03.696Z,11.47
2022-10-04T22:09:41.738Z,11.49
2022-10-04T22:12:20.874Z,11.48
2022-10-04T22:14:53.690Z,11.46
2022-10-04T22:17:25.451Z,11.44
2022-10-04T22:19:57.594Z,11.43
2022-10-04T22:22:35.303Z,11.41
2022-10-04T22:25:19.410Z,11.40
2022-10-04T22:27:53.451Z,11.35
2022-10-04T22:30:28.201Z,11.33
2022-10-04T22:33:23.753Z,11.30
2022-10-04T22:36:18.608Z,11.26
2022-10-04T22:39:04.229Z,11.23
2022-10-04T22:41:40.330Z,11.22
2022-10-04T22:44:25.259Z,11.17
2022-10-04T22:46:59.864Z,11.16
2022-10-04T22:49:34.773Z,11.16
2022-10-04T22:52:19.805Z,11.16
2022-10-04T22:54:52.709Z,11.12
2022-10-04T22:57:26.688Z,11.07
2022-10-04T22:59:58.270Z,11.05
2022-10-04T23:02:30.456Z,11.00
2022-10-04T23:05:15.181Z,10.96
2022-10-04T23:07:48.213Z,10.93
2022-10-04T23:10:20.223Z,10.91
2022-10-04T23:12:52.052Z,10.88
2022-10-04T23:15:23.711Z,10.86
2022-10-04T23:17:55.788Z,10.83
2022-10-04T23:20:30.189Z,10.80
2022-10-04T23:23:02.497Z,10.78
2022-10-04T23:25:40.055Z,10.77
2022-10-04T23:28:14.442Z,10.75
2022-10-04T23:30:55.820Z,10.75
2022-10-04T23:33:27.570Z,10.73
2022-10-04T23:35:59.189Z,10.70
2022-10-04T23:38:31.735Z,10.68
2022-10-04T23:41:06.041Z,10.66
2022-10-04T23:43:38.337Z,10.62
2022-10-04T23:46:19.349Z,10.60
2022-10-04T23:48:53.128Z,10.58
2022-10-04T23:51:24.861Z,10.56
2022-10-04T23:53:56.508Z,10.55
2022-10-04T23:56:29.420Z,10.52
2022-10-04T23:59:01.046Z,10.50
